This is the latest recevied weather packets stored in our database for station/object GW1468. If no packets are shown the sender has not sent any weather packets the latest 10 day(s).
| Time | Temp. | Humidity | Pressure | Rain* | Wind** | Luminosity | Snow |
|---|---|---|---|---|---|---|---|
| 1777820790 | 10.56° C | 44% | - | 0 mm | - | - | - |
| 1777820078 | 10° C | 45% | - | 0 mm | - | - | - |
| 1777818641 | 9.44° C | 50% | - | 0 mm | - | - | - |
| 1777816828 | 8.33° C | 54% | - | 0 mm | - | - | - |
| 1777808179 | -1.11° C | 99% | - | 0 mm | - | - | - |
| 1777807091 | -1.11° C | 99% | - | 0 mm | - | - | - |
| 1777804936 | -1.11° C | 99% | - | 0 mm | - | - | - |
| 1777802774 | -0.56° C | 99% | - | 0 mm | - | - | - |
| 1777798814 | 0° C | 99% | - | 0 mm | - | - | - |
| 1777797760 | 0° C | 99% | - | 0 mm | - | - | - |
| 1777797038 | 0° C | 99% | - | 0 mm | - | - | - |
| 1777796691 | 0° C | 99% | - | 0 mm | - | - | - |
| 1777791983 | 1.11° C | 99% | - | 0 mm | - | - | - |
| 1777789092 | 2.22° C | 98% | - | 0 mm | - | - | - |
| 1777786957 | 2.78° C | 97% | - | 0 mm | - | - | - |
| 1777786583 | 2.78° C | 97% | - | 0 mm | - | - | - |
| 1777786251 | 2.78° C | 97% | - | 0 mm | - | - | - |
| 1777785535 | 2.78° C | 97% | - | 0 mm | - | - | - |
| 1777783725 | 2.78° C | 97% | - | 0 mm | - | - | - |
| 1777783362 | 2.78° C | 96% | - | 0 mm | - | - | - |
| 1777782283 | 2.78° C | 96% | - | 0 mm | - | - | - |
| 1777781903 | 3.33° C | 95% | - | 0 mm | - | - | - |
| 1777781183 | 3.33° C | 95% | - | 0 mm | - | - | - |
| 1777780492 | 3.33° C | 94% | - | 0 mm | - | - | - |
| 1777779736 | 3.89° C | 94% | - | 0 mm | - | - | - |
* Rain since midnight (hover to see other rain measurements)
** Current wind speed in m/s (hover to see current wind gust speed)